Latest Weather Observations for Strathalbyn

IDS60901

Issued at 7:11 pm CST Wednesday 19 September 2018 (issued every 10 minutes, with the page automatically refreshed every 10 minutes)

About weather observations | Map of Adelaide area stations | Latest observations for Adelaide area | Other Formats
Station Details ID: 024580 Name: STRATHALBYN RACECOURSE Lat: -35.28 Lon: 138.89 Height: 58.0 m
Data from the previous 72 hours. | See also: Recent months at Strathalbyn
Date/Time
CST
Temp
°C
App
Temp
°C
Dew
Point
°C
Rel
Hum
%
Delta-T
°C
Wind Press
QNH
hPa
Press
MSL
hPa
Rain since
9am
mm
Dir  Spd
km/h
Gust
km/h
Spd
kts
Gust
kts
19/07:00pm 9.1 7.1 6.4 83 1.2 W 6 9 3 5 1019.7 1019.8 1.4
19/06:30pm 9.7 6.9 6.8 82 1.4 SSW 11 15 6 8 1019.5 1019.6 1.4
19/06:00pm 10.2 6.9 6.4 77 1.8 WSW 13 22 7 12 1019.3 1019.4 0.8
19/05:30pm 10.4 7.3 7.3 81 1.5 WSW 13 17 7 9 1019.0 1019.0 0.8
19/05:00pm 10.3 7.5 7.0 80 1.6 WSW 11 15 6 8 1018.8 1018.8 0.6
19/04:30pm 10.7 7.9 6.8 77 1.8 SW 11 17 6 9 1018.7 1018.7 0.0
19/04:00pm 11.1 6.6 6.3 72 2.3 S 19 26 10 14 1018.4 1018.4 0.0
19/03:30pm 12.8 6.8 5.2 60 3.5 SW 26 35 14 19 1017.8 1017.8 0.0
19/03:00pm 15.8 9.7 4.8 48 5.2 W 26 35 14 19 1017.6 1017.6 0.0
19/02:30pm 14.8 7.8 1.7 41 5.7 WNW 28 37 15 20 1017.7 1017.7 0.0
19/02:00pm 15.3 8.8 2.5 42 5.7 W 26 37 14 20 1017.8 1017.8 0.0
19/01:30pm 14.7 8.6 2.6 44 5.4 W 24 35 13 19 1017.9 1017.9 0.0
19/01:00pm 14.5 7.4 1.1 40 5.8 W 28 37 15 20 1018.1 1018.1 0.0
19/12:30pm 15.4 8.3 1.2 38 6.2 W 28 39 15 21 1018.0 1018.0 0.0
19/12:00pm 14.5 8.2 1.4 41 5.7 W 24 37 13 20 1018.1 1018.1 0.0
19/11:30am 14.6 8.1 2.8 45 5.3 W 26 35 14 19 1018.2 1018.2 0.0
19/11:00am 13.8 7.8 3.3 49 4.7 WSW 24 35 13 19 1018.2 1018.2 0.0
19/10:30am 14.4 8.4 1.0 40 5.8 W 22 32 12 17 1018.2 1018.2 0.0
19/10:00am 13.9 8.3 3.4 49 4.7 WSW 22 35 12 19 1018.3 1018.3 0.0
19/09:30am 13.4 6.9 2.6 48 4.8 W 26 35 14 19 1018.2 1018.2 0.0
19/09:00am 12.9 7.3 3.6 53 4.2 WSW 22 35 12 19 1018.2 1018.2 0.4
19/08:30am 12.5 7.5 4.5 58 3.6 WSW 20 28 11 15 1017.8 1017.8 0.4
19/08:00am 11.4 6.0 4.6 63 3.1 W 22 33 12 18 1017.6 1017.6 0.4
19/07:30am 10.1 6.0 4.3 67 2.6 WNW 15 19 8 10 1017.3 1017.3 0.4
19/07:00am 8.7 3.8 3.9 72 2.1 WNW 19 22 10 12 1016.7 1016.7 0.4
19/06:30am 7.3 3.0 3.2 75 1.7 WNW 15 19 8 10 1016.4 1016.4 0.4
19/06:00am 7.8 3.1 3.3 73 1.9 WNW 17 20 9 11 1016.1 1016.1 0.4
19/05:30am 7.9 3.2 3.4 73 1.9 W 17 22 9 12 1015.8 1015.8 0.4
19/05:00am 7.7 3.0 3.2 73 1.9 W 17 24 9 13 1015.6 1015.6 0.4
19/04:30am 7.6 2.9 2.9 72 2.0 W 17 20 9 11 1015.4 1015.4 0.4
19/04:00am 7.6 3.7 3.3 74 1.8 WNW 13 19 7 10 1015.2 1015.2 0.4
19/03:30am 7.3 3.3 3.0 74 1.8 WNW 13 17 7 9 1015.0 1015.0 0.4
19/03:00am 7.9 3.6 3.4 73 1.9 W 15 20 8 11 1015.0 1015.0 0.4
19/02:30am 8.1 2.9 3.4 72 2.0 W 20 26 11 14 1014.9 1014.9 0.4
19/02:00am 7.7 2.6 3.2 73 1.9 W 19 22 10 12 1015.2 1015.2 0.4
19/01:30am 8.2 3.0 3.3 71 2.1 W 20 28 11 15 1015.5 1015.5 0.4
19/01:00am 8.0 2.9 3.1 71 2.1 W 19 24 10 13 1015.7 1015.7 0.4
19/12:30am 8.4 3.2 2.6 67 2.4 W 19 26 10 14 1015.7 1015.7 0.4
19/12:00am 8.2 3.5 2.9 69 2.2 WSW 17 22 9 12 1015.7 1015.7 0.4
 
Date/Time
CST
Temp
°C
App
Temp
°C
Dew
Point
°C
Rel
Hum
%
Delta-T
°C
Wind Press
QNH
hPa
Press
MSL
hPa
Rain since
9am
mm
Dir  Spd
km/h
Gust
km/h
Spd
kts
Gust
kts
18/11:30pm 8.7 3.6 3.1 68 2.4 W 19 26 10 14 1015.5 1015.5 0.4
18/11:00pm 8.6 3.5 3.0 68 2.4 W 19 26 10 14 1015.5 1015.5 0.4
18/10:30pm 9.0 2.9 2.8 65 2.6 W 24 33 13 18 1015.3 1015.3 0.4
18/10:00pm 9.0 3.8 3.4 68 2.4 W 20 28 11 15 1015.2 1015.2 0.4
18/09:30pm 8.9 3.8 3.9 71 2.2 W 20 30 11 16 1015.0 1015.0 0.4
18/09:00pm 8.5 3.7 4.5 76 1.8 W 19 28 10 15 1014.8 1014.8 0.4
18/08:30pm 9.2 4.2 4.4 72 2.1 W 20 33 11 18 1014.9 1014.9 0.2
18/08:00pm 9.7 3.4 3.7 66 2.6 WNW 26 37 14 20 1014.3 1014.3 0.2
18/07:30pm 9.6 4.1 3.8 67 2.5 WNW 22 32 12 17 1014.0 1014.0 0.2
18/07:00pm 9.0 4.0 4.4 73 2.0 W 20 26 11 14 1013.8 1013.8 0.2
18/06:40pm 9.3 2.6 3.9 69 2.4 W 28 54 15 29 1014.0 1014.0 0.0
18/06:38pm 9.9 4.0 3.9 66 2.6 W 24 54 13 29 1014.1 1014.1 0.0
18/06:30pm 10.8 5.8 3.4 60 3.2 W 19 24 10 13 1013.5 1013.5 0.0
18/06:00pm 11.7 5.2 2.7 54 3.9 W 26 39 14 21 1013.0 1013.0 0.0
18/05:30pm 12.5 5.4 3.5 54 4.0 W 30 41 16 22 1012.6 1012.6 0.0
18/05:00pm 13.2 5.6 3.0 50 4.5 W 32 43 17 23 1012.4 1012.4 0.0
18/04:40pm 13.5 6.1 1.8 45 5.1 W 30 48 16 26 1012.1 1012.1 0.0
18/04:30pm 13.8 6.2 2.7 47 4.9 W 32 44 17 24 1012.1 1012.1 0.0
18/04:00pm 14.4 6.7 3.2 47 5.1 W 33 46 18 25 1011.8 1011.8 0.0
18/03:51pm 14.5 6.4 3.3 47 5.1 W 35 54 19 29 1011.7 1011.7 0.0
18/03:30pm 14.7 5.7 2.3 43 5.5 W 39 54 21 29 1011.6 1011.6 0.0
18/03:02pm 15.0 7.1 4.4 49 4.9 WSW 35 54 19 29 1011.4 1011.4 0.0
18/03:00pm 15.0 6.6 3.5 46 5.3 W 37 54 20 29 1011.3 1011.3 0.0
18/02:59pm 15.0 6.9 3.5 46 5.2 W 35 54 19 29 1011.3 1011.3 0.0
18/02:30pm 14.6 6.1 5.1 53 4.5 W 39 54 21 29 1011.3 1011.3 0.0
18/02:10pm 15.1 8.7 6.9 58 4.0 W 30 54 16 29 1011.3 1011.3 0.0
18/02:00pm 14.7 7.4 7.0 60 3.8 WNW 35 48 19 26 1011.3 1011.3 0.0
18/01:31pm 15.1 7.6 6.4 56 4.2 WNW 35 57 19 31 1011.5 1011.5 0.0
18/01:30pm 14.9 7.5 6.7 58 4.0 WNW 35 52 19 28 1011.5 1011.5 0.0
18/01:24pm 15.3 8.9 6.8 57 4.2 WNW 30 50 16 27 1011.4 1011.4 0.0
18/01:00pm 13.5 6.6 7.1 65 3.1 W 33 44 18 24 1011.6 1011.6 0.0
18/12:30pm 14.5 6.6 7.8 64 3.3 WNW 39 50 21 27 1011.8 1011.8 0.0
18/12:00pm 13.5 7.1 8.4 71 2.6 WNW 32 46 17 25 1012.1 1012.1 0.0
18/11:43am 15.2 7.5 5.4 52 4.7 WNW 35 56 19 30 1012.0 1012.0 0.0
18/11:30am 15.4 7.2 5.0 50 4.9 NW 37 54 20 29 1011.8 1011.8 0.0
18/11:14am 15.8 8.2 3.9 45 5.5 WNW 33 52 18 28 1011.6 1011.6 0.0
18/11:00am 16.1 8.2 4.5 46 5.5 WNW 35 50 19 27 1011.7 1011.7 0.0
18/10:36am 15.6 8.5 3.7 45 5.5 WNW 30 48 16 26 1011.8 1011.8 0.0
18/10:30am 15.8 8.7 3.6 44 5.6 WNW 30 41 16 22 1011.8 1011.8 0.0
18/10:00am 15.1 7.4 2.3 42 5.7 W 32 46 17 25 1012.3 1012.3 0.0
18/09:30am 15.2 8.4 1.0 38 6.2 WNW 26 43 14 23 1012.2 1012.2 0.0
18/09:00am 14.2 8.0 2.1 44 5.3 W 24 33 13 18 1012.3 1012.3 0.0
18/08:30am 13.7 9.2 6.1 60 3.6 W 19 30 10 16 1012.2 1012.2 0.0
18/08:00am 12.4 8.2 7.3 71 2.5 WSW 19 26 10 14 1012.1 1012.1 0.0
18/07:30am 13.0 8.8 7.5 69 2.7 WSW 19 28 10 15 1011.6 1011.6 0.0
18/07:00am 12.5 9.5 7.6 72 2.4 W 13 24 7 13 1011.4 1011.4 0.0
18/06:30am 12.0 8.1 7.1 72 2.4 WSW 17 24 9 13 1010.9 1010.9 0.0
18/06:00am 12.3 9.4 8.0 75 2.1 WSW 13 20 7 11 1010.7 1010.7 0.0
18/05:30am 13.1 10.7 8.6 74 2.3 WNW 11 19 6 10 1010.4 1010.4 0.0
18/05:00am 12.0 10.0 4.5 60 3.4 W 4 7 2 4 1010.0 1010.0 0.0
18/04:30am 12.1 9.6 3.9 57 3.7 SSW 6 9 3 5 1009.6 1009.6 0.0
18/04:00am 12.8 8.8 2.6 50 4.5 SSW 13 20 7 11 1009.3 1009.3 0.0
18/03:30am 14.4 6.2 -0.8 35 6.3 NW 32 50 17 27 1007.5 1007.5 0.0
18/03:00am 15.2 4.5 -4.2 26 7.5 NW 43 61 23 33 1006.9 1006.9 0.0
18/02:39am 16.0 4.5 -6.3 21 8.3 NW 46 65 25 35 1007.3 1007.3 0.0
18/02:30am 16.6 4.6 -7.8 18 8.9 NW 48 65 26 35 1007.4 1007.4 0.0
18/02:00am 17.7 7.8 -7.6 17 9.4 NNW 37 57 20 31 1007.2 1007.2 0.0
18/01:30am 17.7 9.1 -7.6 17 9.4 NNW 30 48 16 26 1007.5 1007.5 0.0
18/01:01am 17.9 9.7 -7.5 17 9.4 NNW 28 46 15 25 1008.2 1008.2 0.0
18/01:00am 17.8 10.0 -7.5 17 9.4 NNW 26 46 14 25 1008.3 1008.3 0.0
18/12:30am 16.9 11.7 -6.2 20 8.7 N 13 28 7 15 1008.7 1008.7 0.0
18/12:00am 13.1 7.0 -3.6 31 6.4 ENE 19 24 10 13 1008.9 1008.9 0.0
 
Date/Time
CST
Temp
°C
App
Temp
°C
Dew
Point
°C
Rel
Hum
%
Delta-T
°C
Wind Press
QNH
hPa
Press
MSL
hPa
Rain since
9am
mm
Dir  Spd
km/h
Gust
km/h
Spd
kts
Gust
kts
17/11:30pm 14.4 8.3 -3.9 28 7.1 NE 19 26 10 14 1009.2 1009.2 0.0
17/11:00pm 14.2 8.1 -3.6 29 6.9 NE 19 20 10 11 1009.9 1009.9 0.0
17/10:30pm 13.1 7.8 -3.2 32 6.3 NE 15 19 8 10 1010.5 1010.5 0.0
17/10:00pm 13.5 8.3 -2.4 33 6.3 NE 15 19 8 10 1011.0 1011.0 0.0
17/09:30pm 13.4 7.4 -2.9 32 6.4 NE 19 24 10 13 1011.1 1011.1 0.0
17/09:00pm 13.5 8.3 -2.4 33 6.3 NE 15 17 8 9 1011.2 1011.2 0.0
17/08:30pm 13.2 8.1 -2.3 34 6.1 NE 15 19 8 10 1011.3 1011.3 0.0
17/08:00pm 14.2 8.7 -1.8 33 6.5 NE 17 20 9 11 1011.4 1011.4 0.0
17/07:30pm 15.1 10.0 -1.9 31 6.9 NE 15 20 8 11 1011.4 1011.4 0.0
17/07:00pm 14.6 9.6 -1.5 33 6.6 NE 15 19 8 10 1011.4 1011.4 0.0
17/06:30pm 15.7 10.8 -0.5 33 6.8 NE 15 20 8 11 1011.3 1011.3 0.0
17/06:00pm 17.0 12.5 -0.2 31 7.4 NNE 13 20 7 11 1011.5 1011.5 0.0
17/05:30pm 17.7 14.0 -0.1 30 7.7 N 9 13 5 7 1011.8 1011.8 0.0
17/05:00pm 18.6 13.7 -0.7 27 8.3 NW 15 19 8 10 1011.9 1011.9 0.0
17/04:30pm 19.0 13.1 -0.9 26 8.6 NW 20 30 11 16 1012.1 1012.1 0.0
17/04:00pm 19.7 13.5 -0.3 26 8.8 NW 22 30 12 16 1012.3 1012.3 0.0
17/03:30pm 20.0 13.4 -0.1 26 8.9 WNW 24 32 13 17 1012.4 1012.4 0.0
17/03:00pm 20.9 14.6 1.7 28 8.9 NW 24 35 13 19 1012.6 1012.6 0.0
17/02:30pm 20.5 14.5 0.9 27 8.9 NNW 22 32 12 17 1013.1 1013.1 0.0
17/02:00pm 20.0 14.2 -0.1 26 8.9 N 20 32 11 17 1013.6 1013.6 0.0
17/01:30pm 20.1 14.4 0.5 27 8.8 NNW 20 30 11 16 1014.2 1014.2 0.0
17/01:00pm 20.1 13.0 1.5 29 8.5 NNW 28 43 15 23 1014.8 1014.8 0.0
17/12:30pm 19.0 11.7 0.1 28 8.3 N 28 39 15 21 1015.6 1015.6 0.0
17/12:00pm 18.5 11.2 0.2 29 8.0 NNW 28 44 15 24 1016.5 1016.5 0.0
17/11:49am 18.5 11.3 0.6 30 7.9 NNW 28 46 15 25 1016.7 1016.7 0.0
17/11:30am 18.0 10.3 0.2 30 7.8 NNW 30 39 16 21 1016.9 1016.9 0.0
17/11:07am 18.2 11.1 1.3 32 7.6 NNW 28 46 15 25 1017.3 1017.3 0.0
17/11:00am 18.5 11.4 1.1 31 7.8 NNW 28 41 15 22 1017.4 1017.4 0.0
17/10:30am 17.3 10.8 0.0 31 7.5 NNW 24 35 13 19 1017.9 1017.9 0.0
17/10:00am 17.2 10.5 1.2 34 7.1 NNW 26 35 14 19 1018.3 1018.3 0.0
17/09:30am 16.5 11.1 1.4 36 6.7 N 19 24 10 13 1018.5 1018.5 0.0
17/09:00am 15.0 9.9 2.9 44 5.4 N 19 24 10 13 1018.9 1018.9 0.0
17/08:30am 13.5 8.7 2.7 48 4.8 N 17 24 9 13 1019.4 1019.5 0.0
17/08:00am 11.9 7.3 3.7 57 3.7 N 17 22 9 12 1019.5 1019.6 0.0
17/07:30am 9.2 6.3 4.6 73 2.0 NNW 9 11 5 6 1019.6 1019.7 0.0
17/07:00am 5.6 1.6 3.1 84 1.0 N 13 15 7 8 1019.6 1019.7 0.0
17/06:30am 2.9 -1.1 0.6 85 0.9 NNW 11 13 6 7 1019.6 1019.7 0.0
17/06:00am 2.6 -0.7 0.3 85 0.9 NNW 7 9 4 5 1019.7 1019.8 0.0
17/05:30am 2.6 -1.4 0.3 85 0.9 NNW 11 13 6 7 1019.6 1019.7 0.0
17/05:00am 3.1 -0.5 0.8 85 0.9 N 9 13 5 7 1019.8 1019.9 0.0
17/04:30am 2.5 -1.9 0.1 84 0.9 NE 13 19 7 10 1020.1 1020.1 0.0
17/04:00am 4.7 0.2 1.9 82 1.1 NW 15 17 8 9 1020.0 1020.0 0.0
17/03:30am 4.6 0.0 1.5 80 1.2 NNW 15 17 8 9 1020.2 1020.2 0.0
17/03:00am 4.7 0.1 1.7 81 1.2 NW 15 17 8 9 1020.6 1020.6 0.0
17/02:30am 3.9 -0.8 1.1 82 1.1 NW 15 17 8 9 1020.8 1020.8 0.0
17/02:00am 4.1 -0.5 1.3 82 1.1 NW 15 17 8 9 1021.3 1021.3 0.0
17/01:30am 4.6 0.4 1.8 82 1.1 NNW 13 17 7 9 1021.8 1021.8 0.0
17/01:00am 4.7 0.2 2.1 83 1.0 NNW 15 17 8 9 1022.1 1022.1 0.0
17/12:30am 4.7 0.6 2.1 83 1.0 NW 13 17 7 9 1022.3 1022.3 0.0
17/12:00am 5.3 0.8 2.1 80 1.3 NW 15 17 8 9 1022.5 1022.5 0.0
 
Date/Time
CST
Temp
°C
App
Temp
°C
Dew
Point
°C
Rel
Hum
%
Delta-T
°C
Wind Press
QNH
hPa
Press
MSL
hPa
Rain since
9am
mm
Dir  Spd
km/h
Gust
km/h
Spd
kts
Gust
kts
16/11:30pm 5.4 1.3 2.2 80 1.3 NNW 13 15 7 8 1022.9 1022.9 0.0
16/11:00pm 5.5 1.4 2.3 80 1.3 NW 13 17 7 9 1023.3 1023.3 0.0
16/10:30pm 5.9 1.5 2.9 81 1.2 NNW 15 17 8 9 1023.6 1023.6 0.0
16/10:00pm 5.3 0.9 2.7 83 1.1 NNW 15 17 8 9 1023.8 1023.8 0.0
16/09:30pm 5.5 1.1 2.8 83 1.1 NNW 15 17 8 9 1023.9 1023.9 0.0
16/09:00pm 5.9 2.7 2.9 81 1.2 NW 9 13 5 7 1024.0 1024.0 0.0
16/08:30pm 6.8 3.3 3.6 80 1.4 NNW 11 11 6 6 1024.1 1024.1 0.0
16/08:00pm 9.5 7.0 3.9 68 2.5 W 6 7 3 4 1023.9 1023.9 0.0
16/07:30pm 9.7 6.8 4.7 71 2.2 W 9 11 5 6 1023.9 1023.9 0.0

Latest Capital City Observations: Canberra | Sydney | Melbourne | Brisbane | Adelaide | Perth | Hobart | Darwin

Other Formats:

Comma delimited format used in spreadsheet applications
http://www.bom.gov.au/fwo/IDS60901/IDS60901.94814.axf

JavaScript Object Notation format (JSON) in row-major order
http://www.bom.gov.au/fwo/IDS60901/IDS60901.94814.json